sensor_id;sensor_type;location;lat;lon;timestamp;pressure;altitude;pressure_sealevel;temperature;humidity
19208;BME280;9737;59.466;18.036;2023-04-26T00:01:16;98146.75;;;4.72;73.54
19208;BME280;9737;59.466;18.036;2023-04-26T00:03:44;98151.06;;;4.73;73.68
19208;BME280;9737;59.466;18.036;2023-04-26T00:06:13;98129.69;;;4.66;74.18
19208;BME280;9737;59.466;18.036;2023-04-26T00:08:42;98135.53;;;4.70;74.36
19208;BME280;9737;59.466;18.036;2023-04-26T00:11:09;98165.50;;;4.78;74.01
19208;BME280;9737;59.466;18.036;2023-04-26T00:13:37;98157.16;;;4.73;74.03
19208;BME280;9737;59.466;18.036;2023-04-26T00:16:06;98152.72;;;4.74;74.00
19208;BME280;9737;59.466;18.036;2023-04-26T00:18:34;98171.59;;;4.79;74.01
19208;BME280;9737;59.466;18.036;2023-04-26T00:21:02;98167.56;;;4.75;74.49
19208;BME280;9737;59.466;18.036;2023-04-26T00:23:32;98159.63;;;4.65;74.06
19208;BME280;9737;59.466;18.036;2023-04-26T00:26:02;98167.69;;;4.73;74.12
19208;BME280;9737;59.466;18.036;2023-04-26T00:28:30;98154.41;;;4.75;74.16
19208;BME280;9737;59.466;18.036;2023-04-26T00:30:58;98146.06;;;4.70;74.42
19208;BME280;9737;59.466;18.036;2023-04-26T00:33:26;98133.28;;;4.65;74.63
19208;BME280;9737;59.466;18.036;2023-04-26T00:35:54;98136.06;;;4.63;74.59
19208;BME280;9737;59.466;18.036;2023-04-26T00:38:22;98153.00;;;4.71;74.45
19208;BME280;9737;59.466;18.036;2023-04-26T00:40:51;98153.00;;;4.71;74.83
19208;BME280;9737;59.466;18.036;2023-04-26T00:43:19;98168.41;;;4.75;74.91
19208;BME280;9737;59.466;18.036;2023-04-26T00:45:47;98146.06;;;4.70;74.56
19208;BME280;9737;59.466;18.036;2023-04-26T00:48:16;98138.28;;;4.68;74.82
19208;BME280;9737;59.466;18.036;2023-04-26T00:50:45;98144.53;;;4.67;74.79
19208;BME280;9737;59.466;18.036;2023-04-26T00:53:15;98146.06;;;4.70;75.18
19208;BME280;9737;59.466;18.036;2023-04-26T00:55:43;98142.72;;;4.68;75.05
19208;BME280;9737;59.466;18.036;2023-04-26T00:58:13;98158.25;;;4.71;75.18
19208;BME280;9737;59.466;18.036;2023-04-26T01:00:41;98162.44;;;4.73;74.89
19208;BME280;9737;59.466;18.036;2023-04-26T01:03:09;98159.22;;;4.70;74.86
19208;BME280;9737;59.466;18.036;2023-04-26T01:05:38;98179.63;;;4.77;74.68
19208;BME280;9737;59.466;18.036;2023-04-26T01:08:06;98199.59;;;4.80;75.32
19208;BME280;9737;59.466;18.036;2023-04-26T01:10:34;98199.34;;;4.83;75.08
19208;BME280;9737;59.466;18.036;2023-04-26T01:13:02;98201.25;;;4.81;75.21
19208;BME280;9737;59.466;18.036;2023-04-26T01:15:32;98204.59;;;4.83;74.93
19208;BME280;9737;59.466;18.036;2023-04-26T01:18:02;98194.59;;;4.77;75.74
19208;BME280;9737;59.466;18.036;2023-04-26T01:20:32;98203.72;;;4.73;75.55
19208;BME280;9737;59.466;18.036;2023-04-26T01:23:04;98204.88;;;4.80;75.46
19208;BME280;9737;59.466;18.036;2023-04-26T01:25:33;98209.59;;;4.86;75.56
19208;BME280;9737;59.466;18.036;2023-04-26T01:28:03;98173.41;;;4.57;75.26
19208;BME280;9737;59.466;18.036;2023-04-26T01:30:31;98202.88;;;4.72;75.36
19208;BME280;9737;59.466;18.036;2023-04-26T01:33:00;98201.78;;;4.75;75.70
19208;BME280;9737;59.466;18.036;2023-04-26T01:35:28;98206.78;;;4.78;75.27
19208;BME280;9737;59.466;18.036;2023-04-26T01:37:55;98232.22;;;4.88;75.83
19208;BME280;9737;59.466;18.036;2023-04-26T01:40:25;98254.44;;;4.95;75.32
19208;BME280;9737;59.466;18.036;2023-04-26T01:42:53;98296.53;;;5.07;75.50
19208;BME280;9737;59.466;18.036;2023-04-26T01:45:21;98287.06;;;5.04;76.06
19208;BME280;9737;59.466;18.036;2023-04-26T01:47:49;98293.19;;;5.05;76.04
19208;BME280;9737;59.466;18.036;2023-04-26T01:50:17;98250.06;;;4.85;75.91
19208;BME280;9737;59.466;18.036;2023-04-26T01:52:46;98269.88;;;5.00;75.97
19208;BME280;9737;59.466;18.036;2023-04-26T01:55:14;98253.88;;;4.92;75.93
19208;BME280;9737;59.466;18.036;2023-04-26T01:57:43;98249.56;;;4.91;75.84
19208;BME280;9737;59.466;18.036;2023-04-26T02:00:12;98270.00;;;4.98;75.84
19208;BME280;9737;59.466;18.036;2023-04-26T02:02:40;98312.47;;;5.05;75.99
19208;BME280;9737;59.466;18.036;2023-04-26T02:05:10;98345.66;;;5.17;76.03
19208;BME280;9737;59.466;18.036;2023-04-26T02:07:38;98325.25;;;5.10;75.92
19208;BME280;9737;59.466;18.036;2023-04-26T02:10:07;98297.63;;;5.04;75.77
19208;BME280;9737;59.466;18.036;2023-04-26T02:12:35;98300.94;;;5.06;76.06
19208;BME280;9737;59.466;18.036;2023-04-26T02:15:06;98287.59;;;4.98;76.08
19208;BME280;9737;59.466;18.036;2023-04-26T02:17:35;98296.06;;;5.02;76.10
19208;BME280;9737;59.466;18.036;2023-04-26T02:20:05;98301.22;;;5.03;76.24
19208;BME280;9737;59.466;18.036;2023-04-26T02:22:36;98297.88;;;5.01;76.30
19208;BME280;9737;59.466;18.036;2023-04-26T02:25:04;98296.91;;;5.02;75.90
19208;BME280;9737;59.466;18.036;2023-04-26T02:27:32;98322.03;;;5.06;75.99
19208;BME280;9737;59.466;18.036;2023-04-26T02:30:12;98325.09;;;5.11;76.49
19208;BME280;9737;59.466;18.036;2023-04-26T02:32:40;98341.63;;;5.13;76.21
19208;BME280;9737;59.466;18.036;2023-04-26T02:35:08;98351.19;;;5.14;76.57
19208;BME280;9737;59.466;18.036;2023-04-26T02:37:37;98346.75;;;5.15;76.56
19208;BME280;9737;59.466;18.036;2023-04-26T02:40:06;98383.03;;;5.22;76.74
19208;BME280;9737;59.466;18.036;2023-04-26T02:42:36;98394.84;;;5.28;76.49
19208;BME280;9737;59.466;18.036;2023-04-26T02:45:05;98383.75;;;5.24;76.50
19208;BME280;9737;59.466;18.036;2023-04-26T02:47:35;98364.81;;;5.19;76.94
19208;BME280;9737;59.466;18.036;2023-04-26T02:50:05;98347.59;;;5.15;76.90
19208;BME280;9737;59.466;18.036;2023-04-26T02:52:33;98351.19;;;5.14;76.41
19208;BME280;9737;59.466;18.036;2023-04-26T02:55:02;98345.94;;;5.14;76.78
19208;BME280;9737;59.466;18.036;2023-04-26T02:57:30;98347.59;;;5.15;76.91
19208;BME280;9737;59.466;18.036;2023-04-26T02:59:58;98345.22;;;5.12;76.62
19208;BME280;9737;59.466;18.036;2023-04-26T03:02:26;98354.53;;;5.16;76.59
19208;BME280;9737;59.466;18.036;2023-04-26T03:04:56;98363.97;;;5.19;77.05
19208;BME280;9737;59.466;18.036;2023-04-26T03:07:24;98383.16;;;5.21;77.23
19208;BME280;9737;59.466;18.036;2023-04-26T03:09:52;98382.31;;;5.20;76.98
19208;BME280;9737;59.466;18.036;2023-04-26T03:12:20;98380.41;;;5.22;77.10
19208;BME280;9737;59.466;18.036;2023-04-26T03:14:48;98395.13;;;5.25;77.15
19208;BME280;9737;59.466;18.036;2023-04-26T03:17:15;98414.00;;;5.30;77.11
19208;BME280;9737;59.466;18.036;2023-04-26T03:19:43;98398.47;;;5.27;76.77
19208;BME280;9737;59.466;18.036;2023-04-26T03:22:12;98408.88;;;5.28;77.62
19208;BME280;9737;59.466;18.036;2023-04-26T03:24:41;98399.56;;;5.24;77.50
19208;BME280;9737;59.466;18.036;2023-04-26T03:27:09;98429.44;;;5.35;77.17
19208;BME280;9737;59.466;18.036;2023-04-26T03:29:37;98433.88;;;5.34;77.61
19208;BME280;9737;59.466;18.036;2023-04-26T03:32:07;98426.81;;;5.35;77.54
19208;BME280;9737;59.466;18.036;2023-04-26T03:34:35;98467.50;;;5.42;77.05
19208;BME280;9737;59.466;18.036;2023-04-26T03:37:03;98495.75;;;5.51;77.17
19208;BME280;9737;59.466;18.036;2023-04-26T03:39:32;98489.03;;;5.47;77.79
19208;BME280;9737;59.466;18.036;2023-04-26T03:42:03;98526.88;;;5.57;77.11
19208;BME280;9737;59.466;18.036;2023-04-26T03:44:31;98533.81;;;5.58;78.08
19208;BME280;9737;59.466;18.036;2023-04-26T03:46:58;98549.13;;;5.64;77.69
19208;BME280;9737;59.466;18.036;2023-04-26T03:49:27;98576.66;;;5.71;77.65
19208;BME280;9737;59.466;18.036;2023-04-26T03:51:54;98591.53;;;5.72;77.24
19208;BME280;9737;59.466;18.036;2023-04-26T03:54:22;98603.63;;;5.75;77.34
19208;BME280;9737;59.466;18.036;2023-04-26T03:56:52;98644.97;;;5.85;77.73
19208;BME280;9737;59.466;18.036;2023-04-26T03:59:20;98630.22;;;5.83;78.22
19208;BME280;9737;59.466;18.036;2023-04-26T04:01:47;98631.06;;;5.83;77.79
19208;BME280;9737;59.466;18.036;2023-04-26T04:04:15;98629.50;;;5.81;78.04
19208;BME280;9737;59.466;18.036;2023-04-26T04:06:44;98620.06;;;5.78;78.33
19208;BME280;9737;59.466;18.036;2023-04-26T04:09:11;98611.41;;;5.76;78.45
19208;BME280;9737;59.466;18.036;2023-04-26T04:11:39;98650.38;;;5.84;77.61
19208;BME280;9737;59.466;18.036;2023-04-26T04:14:08;98668.44;;;5.88;77.71
19208;BME280;9737;59.466;18.036;2023-04-26T04:16:36;98650.09;;;5.87;77.64
19208;BME280;9737;59.466;18.036;2023-04-26T04:19:04;98664.88;;;5.89;77.94
19208;BME280;9737;59.466;18.036;2023-04-26T04:21:32;98696.75;;;5.98;78.40
19208;BME280;9737;59.466;18.036;2023-04-26T04:24:00;98713.28;;;6.00;78.55
19208;BME280;9737;59.466;18.036;2023-04-26T04:26:28;98699.38;;;5.98;77.84
19208;BME280;9737;59.466;18.036;2023-04-26T04:28:56;98721.91;;;6.02;78.37
19208;BME280;9737;59.466;18.036;2023-04-26T04:31:27;98700.22;;;5.98;78.36
19208;BME280;9737;59.466;18.036;2023-04-26T04:33:56;98725.38;;;6.02;78.79
19208;BME280;9737;59.466;18.036;2023-04-26T04:36:24;98731.63;;;6.01;78.34
19208;BME280;9737;59.466;18.036;2023-04-26T04:38:52;98698.69;;;5.84;78.32
19208;BME280;9737;59.466;18.036;2023-04-26T04:41:20;98740.00;;;6.06;78.36
19208;BME280;9737;59.466;18.036;2023-04-26T04:43:49;98752.97;;;6.09;78.63
19208;BME280;9737;59.466;18.036;2023-04-26T04:46:17;98744.44;;;6.06;78.04
19208;BME280;9737;59.466;18.036;2023-04-26T04:48:46;98723.59;;;6.03;78.13
19208;BME280;9737;59.466;18.036;2023-04-26T04:51:14;98725.50;;;6.01;78.46
19208;BME280;9737;59.466;18.036;2023-04-26T04:53:42;98751.19;;;6.10;78.60
19208;BME280;9737;59.466;18.036;2023-04-26T04:56:10;98762.56;;;6.10;78.88
19208;BME280;9737;59.466;18.036;2023-04-26T04:58:37;98742.78;;;6.05;78.58
19208;BME280;9737;59.466;18.036;2023-04-26T05:01:05;98730.53;;;6.04;78.55
19208;BME280;9737;59.466;18.036;2023-04-26T05:03:33;98706.47;;;5.97;78.34
19208;BME280;9737;59.466;18.036;2023-04-26T05:06:04;98730.53;;;6.04;79.02
19208;BME280;9737;59.466;18.036;2023-04-26T05:08:32;98742.66;;;6.06;78.59
19208;BME280;9737;59.466;18.036;2023-04-26T05:11:00;98754.78;;;6.09;78.59
19208;BME280;9737;59.466;18.036;2023-04-26T05:13:28;98758.97;;;6.11;79.15
19208;BME280;9737;59.466;18.036;2023-04-26T05:15:56;98806.56;;;6.21;78.57
19208;BME280;9737;59.466;18.036;2023-04-26T05:18:24;98875.66;;;6.37;78.58
19208;BME280;9737;59.466;18.036;2023-04-26T05:20:52;98886.81;;;6.41;79.15
19208;BME280;9737;59.466;18.036;2023-04-26T05:23:21;98915.22;;;6.48;79.32
19208;BME280;9737;59.466;18.036;2023-04-26T05:25:49;98914.53;;;6.35;79.07
19208;BME280;9737;59.466;18.036;2023-04-26T05:28:17;98990.38;;;6.67;79.09
19208;BME280;9737;59.466;18.036;2023-04-26T05:30:45;99040.66;;;6.76;79.15
19208;BME280;9737;59.466;18.036;2023-04-26T05:33:13;99089.88;;;6.89;78.71
19208;BME280;9737;59.466;18.036;2023-04-26T05:35:41;99101.78;;;6.94;79.45
19208;BME280;9737;59.466;18.036;2023-04-26T05:38:08;99110.44;;;6.96;79.10
19208;BME280;9737;59.466;18.036;2023-04-26T05:40:38;99177.94;;;7.11;79.38
19208;BME280;9737;59.466;18.036;2023-04-26T05:43:06;99249.84;;;7.28;79.39
19208;BME280;9737;59.466;18.036;2023-04-26T05:45:34;99305.13;;;7.42;79.14
19208;BME280;9737;59.466;18.036;2023-04-26T05:48:02;99369.00;;;7.60;79.14
19208;BME280;9737;59.466;18.036;2023-04-26T05:50:30;99387.16;;;7.64;79.13
19208;BME280;9737;59.466;18.036;2023-04-26T05:52:58;99395.09;;;7.64;79.03
19208;BME280;9737;59.466;18.036;2023-04-26T05:55:26;99421.81;;;7.72;79.00
19208;BME280;9737;59.466;18.036;2023-04-26T05:57:55;99444.41;;;7.76;79.23
19208;BME280;9737;59.466;18.036;2023-04-26T06:00:24;99458.25;;;7.80;79.16
19208;BME280;9737;59.466;18.036;2023-04-26T06:02:52;99475.50;;;7.86;79.40
19208;BME280;9737;59.466;18.036;2023-04-26T06:05:20;99552.66;;;8.03;79.26
19208;BME280;9737;59.466;18.036;2023-04-26T06:07:49;99664.53;;;8.29;79.26
19208;BME280;9737;59.466;18.036;2023-04-26T06:10:17;99756.44;;;8.53;79.53
19208;BME280;9737;59.466;18.036;2023-04-26T06:12:45;99814.66;;;8.65;79.42
19208;BME280;9737;59.466;18.036;2023-04-26T06:15:15;99801.50;;;8.64;79.54
19208;BME280;9737;59.466;18.036;2023-04-26T06:17:43;99694.94;;;8.36;79.27
19208;BME280;9737;59.466;18.036;2023-04-26T06:20:11;99597.94;;;8.12;79.35
19208;BME280;9737;59.466;18.036;2023-04-26T06:22:39;99535.31;;;7.99;79.34
19208;BME280;9737;59.466;18.036;2023-04-26T06:25:07;99540.59;;;7.99;79.41
19208;BME280;9737;59.466;18.036;2023-04-26T06:27:34;99616.13;;;8.16;79.13
19208;BME280;9737;59.466;18.036;2023-04-26T06:30:05;99662.00;;;8.28;79.57
19208;BME280;9737;59.466;18.036;2023-04-26T06:32:37;99643.84;;;8.23;79.26
19208;BME280;9737;59.466;18.036;2023-04-26T06:35:05;99617.81;;;8.17;79.01
19208;BME280;9737;59.466;18.036;2023-04-26T06:37:33;99593.59;;;8.11;79.44
19208;BME280;9737;59.466;18.036;2023-04-26T06:40:01;99676.84;;;8.30;79.20
19208;BME280;9737;59.466;18.036;2023-04-26T06:42:29;99762.56;;;8.53;79.43
19208;BME280;9737;59.466;18.036;2023-04-26T06:44:57;99798.13;;;8.62;79.50
19208;BME280;9737;59.466;18.036;2023-04-26T06:47:25;99850.25;;;8.74;79.20
19208;BME280;9737;59.466;18.036;2023-04-26T06:49:54;99801.88;;;8.59;79.49
19208;BME280;9737;59.466;18.036;2023-04-26T06:52:23;99799.94;;;8.61;79.50
19208;BME280;9737;59.466;18.036;2023-04-26T06:54:51;99742.69;;;8.48;79.16
19208;BME280;9737;59.466;18.036;2023-04-26T06:57:23;99682.84;;;8.32;79.34
19208;BME280;9737;59.466;18.036;2023-04-26T06:59:51;99568.53;;;8.03;79.15
19208;BME280;9737;59.466;18.036;2023-04-26T07:02:19;99367.81;;;7.53;79.16
19208;BME280;9737;59.466;18.036;2023-04-26T07:04:49;99260.28;;;7.29;78.97
19208;BME280;9737;59.466;18.036;2023-04-26T07:07:19;99197.19;;;7.13;78.79
19208;BME280;9737;59.466;18.036;2023-04-26T07:09:47;99199.09;;;7.11;79.09
19208;BME280;9737;59.466;18.036;2023-04-26T07:12:15;99198.84;;;7.14;78.77
19208;BME280;9737;59.466;18.036;2023-04-26T07:14:42;99195.50;;;7.12;78.86
19208;BME280;9737;59.466;18.036;2023-04-26T07:17:11;99187.81;;;7.09;79.06
19208;BME280;9737;59.466;18.036;2023-04-26T07:19:39;99144.44;;;7.01;78.52
19208;BME280;9737;59.466;18.036;2023-04-26T07:22:07;99145.28;;;7.01;79.15
19208;BME280;9737;59.466;18.036;2023-04-26T07:24:36;99179.16;;;7.07;78.85
19208;BME280;9737;59.466;18.036;2023-04-26T07:27:04;99112.38;;;6.94;79.27
19208;BME280;9737;59.466;18.036;2023-04-26T07:29:32;99030.59;;;6.70;78.50
19208;BME280;9737;59.466;18.036;2023-04-26T07:32:00;98989.03;;;6.61;78.35
19208;BME280;9737;59.466;18.036;2023-04-26T07:34:28;99020.16;;;6.69;78.93
19208;BME280;9737;59.466;18.036;2023-04-26T07:36:55;98972.59;;;6.58;78.95
19208;BME280;9737;59.466;18.036;2023-04-26T07:39:23;98952.66;;;6.53;78.91
19208;BME280;9737;59.466;18.036;2023-04-26T07:41:53;98984.59;;;6.62;78.94
19208;BME280;9737;59.466;18.036;2023-04-26T07:44:21;99034.19;;;6.69;78.86
19208;BME280;9737;59.466;18.036;2023-04-26T07:46:48;99028.78;;;6.71;78.83
19208;BME280;9737;59.466;18.036;2023-04-26T07:49:16;99110.78;;;6.92;78.14
19208;BME280;9737;59.466;18.036;2023-04-26T07:51:44;99101.16;;;6.91;78.38
19208;BME280;9737;59.466;18.036;2023-04-26T07:54:12;99116.78;;;6.94;78.30
19208;BME280;9737;59.466;18.036;2023-04-26T07:56:40;99098.91;;;6.86;77.97
19208;BME280;9737;59.466;18.036;2023-04-26T07:59:10;99141.78;;;7.01;78.69
19208;BME280;9737;59.466;18.036;2023-04-26T08:01:37;99215.19;;;7.20;78.40
19208;BME280;9737;59.466;18.036;2023-04-26T08:04:05;99417.47;;;7.71;78.17
19208;BME280;9737;59.466;18.036;2023-04-26T08:06:33;99521.47;;;7.96;78.76
19208;BME280;9737;59.466;18.036;2023-04-26T08:09:01;99697.38;;;8.40;78.64
19208;BME280;9737;59.466;18.036;2023-04-26T08:11:30;99799.81;;;8.63;78.36
19208;BME280;9737;59.466;18.036;2023-04-26T08:13:58;99868.34;;;8.80;78.63
19208;BME280;9737;59.466;18.036;2023-04-26T08:16:27;99956.06;;;9.01;78.16
19208;BME280;9737;59.466;18.036;2023-04-26T08:18:55;100201.13;;;9.60;78.74
19208;BME280;9737;59.466;18.036;2023-04-26T08:21:28;100671.41;;;10.73;78.75
19208;BME280;9737;59.466;18.036;2023-04-26T08:23:56;100840.66;;;11.14;78.65
19208;BME280;9737;59.466;18.036;2023-04-26T08:26:24;100830.22;;;11.11;79.09
19208;BME280;9737;59.466;18.036;2023-04-26T08:28:52;100665.34;;;10.71;78.92
19208;BME280;9737;59.466;18.036;2023-04-26T08:31:20;100310.03;;;9.84;79.04
19208;BME280;9737;59.466;18.036;2023-04-26T08:33:49;99963.91;;;9.03;78.31
19208;BME280;9737;59.466;18.036;2023-04-26T08:36:18;99690.59;;;8.35;78.40
19208;BME280;9737;59.466;18.036;2023-04-26T08:38:46;99590.19;;;8.08;78.39
19208;BME280;9737;59.466;18.036;2023-04-26T08:41:20;99552.03;;;8.00;78.61
19208;BME280;9737;59.466;18.036;2023-04-26T08:43:49;99499.56;;;7.83;78.34
19208;BME280;9737;59.466;18.036;2023-04-26T08:46:18;99552.03;;;8.00;78.09
19208;BME280;9737;59.466;18.036;2023-04-26T08:48:53;99646.47;;;8.23;78.30
19208;BME280;9737;59.466;18.036;2023-04-26T08:51:25;99828.53;;;8.69;78.12
19208;BME280;9737;59.466;18.036;2023-04-26T08:53:55;100004.94;;;9.10;78.40
19208;BME280;9737;59.466;18.036;2023-04-26T08:56:24;100008.31;;;9.12;78.58
19208;BME280;9737;59.466;18.036;2023-04-26T08:58:53;99927.31;;;8.95;78.33
19208;BME280;9737;59.466;18.036;2023-04-26T09:01:21;99883.06;;;8.84;78.33
19208;BME280;9737;59.466;18.036;2023-04-26T09:03:50;99725.34;;;8.44;78.01
19208;BME280;9737;59.466;18.036;2023-04-26T09:06:21;99730.53;;;8.45;77.80
19208;BME280;9737;59.466;18.036;2023-04-26T09:08:50;99682.78;;;8.34;78.08
19208;BME280;9737;59.466;18.036;2023-04-26T09:11:18;99574.44;;;8.07;77.98
19208;BME280;9737;59.466;18.036;2023-04-26T09:13:46;99628.16;;;8.20;77.79
19208;BME280;9737;59.466;18.036;2023-04-26T09:16:14;99733.78;;;8.49;77.53
19208;BME280;9737;59.466;18.036;2023-04-26T09:18:49;99891.84;;;8.85;77.65
19208;BME280;9737;59.466;18.036;2023-04-26T09:21:19;99992.63;;;9.09;77.78
19208;BME280;9737;59.466;18.036;2023-04-26T09:23:57;100074.03;;;9.32;77.97
19208;BME280;9737;59.466;18.036;2023-04-26T09:26:25;100120.16;;;9.42;77.69
19208;BME280;9737;59.466;18.036;2023-04-26T09:29:12;100304.50;;;9.87;77.71
19208;BME280;9737;59.466;18.036;2023-04-26T09:31:42;100496.16;;;10.32;77.94
19208;BME280;9737;59.466;18.036;2023-04-26T09:34:15;100731.41;;;10.90;77.94
19208;BME280;9737;59.466;18.036;2023-04-26T09:36:51;100653.03;;;10.70;77.89
19208;BME280;9737;59.466;18.036;2023-04-26T09:39:31;100610.44;;;10.58;77.73
19208;BME280;9737;59.466;18.036;2023-04-26T09:41:59;100529.97;;;10.43;78.22
19208;BME280;9737;59.466;18.036;2023-04-26T09:44:29;100277.84;;;9.76;78.45
19208;BME280;9737;59.466;18.036;2023-04-26T09:46:59;100295.06;;;9.83;77.17
19208;BME280;9737;59.466;18.036;2023-04-26T09:49:28;100163.75;;;9.51;77.16
19208;BME280;9737;59.466;18.036;2023-04-26T09:52:02;100089.00;;;9.33;77.66
19208;BME280;9737;59.466;18.036;2023-04-26T09:54:38;100070.66;;;9.30;77.46
19208;BME280;9737;59.466;18.036;2023-04-26T09:57:06;100081.03;;;9.33;76.91
19208;BME280;9737;59.466;18.036;2023-04-26T09:59:41;100214.28;;;9.62;77.33
19208;BME280;9737;59.466;18.036;2023-04-26T10:02:13;100460.47;;;10.23;77.17
19208;BME280;9737;59.466;18.036;2023-04-26T10:04:45;100743.00;;;10.89;77.24
19208;BME280;9737;59.466;18.036;2023-04-26T10:07:16;100738.44;;;10.91;77.62
19208;BME280;9737;59.466;18.036;2023-04-26T10:09:46;100719.19;;;10.88;77.42
19208;BME280;9737;59.466;18.036;2023-04-26T10:12:15;100600.56;;;10.60;77.14
19208;BME280;9737;59.466;18.036;2023-04-26T10:14:43;100565.06;;;10.48;77.37
19208;BME280;9737;59.466;18.036;2023-04-26T10:17:12;100524.84;;;10.40;77.04
19208;BME280;9737;59.466;18.036;2023-04-26T10:19:42;100466.28;;;10.29;77.16
19208;BME280;9737;59.466;18.036;2023-04-26T10:22:15;100489.03;;;10.33;77.28
19208;BME280;9737;59.466;18.036;2023-04-26T10:24:45;100725.13;;;10.91;77.29
19208;BME280;9737;59.466;18.036;2023-04-26T10:27:14;101615.47;;;13.02;76.82
19208;BME280;9737;59.466;18.036;2023-04-26T10:30:05;102559.56;;;15.23;77.08
19208;BME280;9737;59.466;18.036;2023-04-26T10:39:16;103633.91;;;17.64;77.44
19208;BME280;9737;59.466;18.036;2023-04-26T10:41:47;102872.06;;;15.92;77.35
19208;BME280;9737;59.466;18.036;2023-04-26T10:44:37;103011.47;;;16.26;76.95
19208;BME280;9737;59.466;18.036;2023-04-26T10:47:06;103068.03;;;16.39;76.90
19208;BME280;9737;59.466;18.036;2023-04-26T10:49:47;102371.97;;;14.79;76.73
19208;BME280;9737;59.466;18.036;2023-04-26T10:52:15;102057.91;;;14.06;76.88
19208;BME280;9737;59.466;18.036;2023-04-26T10:54:50;102292.47;;;14.65;76.59
19208;BME280;9737;59.466;18.036;2023-04-26T10:57:21;102680.22;;;15.53;76.43
19208;BME280;9737;59.466;18.036;2023-04-26T11:03:05;103090.03;;;16.46;76.22
19208;BME280;9737;59.466;18.036;2023-04-26T11:05:36;102796.66;;;15.80;76.33
19208;BME280;9737;59.466;18.036;2023-04-26T11:08:05;102465.13;;;15.04;76.35
19208;BME280;9737;59.466;18.036;2023-04-26T11:10:38;102563.00;;;15.25;76.09
19208;BME280;9737;59.466;18.036;2023-04-26T11:13:07;103215.59;;;16.75;75.92
19208;BME280;9737;59.466;18.036;2023-04-26T11:15:35;103853.66;;;18.18;75.86
19208;BME280;9737;59.466;18.036;2023-04-26T11:18:04;104438.66;;;19.50;75.76
19208;BME280;9737;59.466;18.036;2023-04-26T11:20:32;104822.03;;;20.33;75.89
19208;BME280;9737;59.466;18.036;2023-04-26T11:23:00;104716.72;;;20.11;75.74
19208;BME280;9737;59.466;18.036;2023-04-26T11:25:29;105218.63;;;21.20;75.44
19208;BME280;9737;59.466;18.036;2023-04-26T11:28:01;105311.69;;;21.39;75.68
19208;BME280;9737;59.466;18.036;2023-04-26T11:30:31;104428.78;;;19.49;75.49
19208;BME280;9737;59.466;18.036;2023-04-26T11:32:59;103922.63;;;18.40;75.38
19208;BME280;9737;59.466;18.036;2023-04-26T11:35:27;103798.38;;;18.11;75.12
19208;BME280;9737;59.466;18.036;2023-04-26T11:37:59;104075.53;;;18.72;74.91
19208;BME280;9737;59.466;18.036;2023-04-26T11:40:28;104120.78;;;18.84;74.62
19208;BME280;9737;59.466;18.036;2023-04-26T11:42:59;103631.53;;;17.75;74.75
19208;BME280;9737;59.466;18.036;2023-04-26T11:45:30;103710.31;;;17.96;74.43
19208;BME280;9737;59.466;18.036;2023-04-26T11:48:00;104151.81;;;18.93;74.39
19208;BME280;9737;59.466;18.036;2023-04-26T11:50:31;104301.13;;;19.28;74.30
19208;BME280;9737;59.466;18.036;2023-04-26T11:53:01;104174.81;;;19.00;74.15
19208;BME280;9737;59.466;18.036;2023-04-26T11:55:31;103983.53;;;18.61;73.98
19208;BME280;9737;59.466;18.036;2023-04-26T11:58:00;104276.19;;;19.23;73.35
19208;BME280;9737;59.466;18.036;2023-04-26T12:00:30;104908.00;;;20.65;73.60
19208;BME280;9737;59.466;18.036;2023-04-26T12:03:03;105051.78;;;20.97;73.56
19208;BME280;9737;59.466;18.036;2023-04-26T12:05:33;105574.34;;;22.09;73.19
19208;BME280;9737;59.466;18.036;2023-04-26T12:08:01;105711.50;;;22.38;73.33
19208;BME280;9737;59.466;18.036;2023-04-26T12:10:31;105533.97;;;22.02;73.28
19208;BME280;9737;59.466;18.036;2023-04-26T12:12:59;105709.59;;;22.40;72.88
19208;BME280;9737;59.466;18.036;2023-04-26T12:15:30;105542.97;;;22.04;72.95
19208;BME280;9737;59.466;18.036;2023-04-26T12:17:59;105610.97;;;22.19;72.82
19208;BME280;9737;59.466;18.036;2023-04-26T12:20:28;104918.53;;;20.71;72.79
19208;BME280;9737;59.466;18.036;2023-04-26T12:22:58;104032.16;;;18.77;72.30
19208;BME280;9737;59.466;18.036;2023-04-26T12:25:27;104499.94;;;19.86;71.96
19208;BME280;9737;59.466;18.036;2023-04-26T12:27:56;104543.63;;;19.95;72.02
19208;BME280;9737;59.466;18.036;2023-04-26T12:30:25;104552.44;;;19.99;71.71
19208;BME280;9737;59.466;18.036;2023-04-26T12:32:55;104388.81;;;19.57;71.72
19208;BME280;9737;59.466;18.036;2023-04-26T12:35:40;104390.16;;;19.66;71.34
19208;BME280;9737;59.466;18.036;2023-04-26T12:38:09;104006.06;;;18.77;71.21
19208;BME280;9737;59.466;18.036;2023-04-26T12:40:38;104243.25;;;19.34;71.08
19208;BME280;9737;59.466;18.036;2023-04-26T12:43:07;104788.66;;;20.53;70.83
19208;BME280;9737;59.466;18.036;2023-04-26T12:45:35;104192.38;;;19.26;70.94
19208;BME280;9737;59.466;18.036;2023-04-26T12:48:04;103927.56;;;18.66;70.67
19208;BME280;9737;59.466;18.036;2023-04-26T12:50:32;104404.97;;;19.76;70.39
19208;BME280;9737;59.466;18.036;2023-04-26T12:53:00;104085.69;;;19.02;70.29
19208;BME280;9737;59.466;18.036;2023-04-26T12:55:28;103195.19;;;17.02;70.15
19208;BME280;9737;59.466;18.036;2023-04-26T12:57:58;102893.81;;;16.33;69.85
19208;BME280;9737;59.466;18.036;2023-04-26T13:00:26;102473.81;;;15.37;69.59
19208;BME280;9737;59.466;18.036;2023-04-26T13:02:54;102141.94;;;14.60;69.04
19208;BME280;9737;59.466;18.036;2023-04-26T13:05:24;102002.81;;;14.30;69.38
19208;BME280;9737;59.466;18.036;2023-04-26T13:07:51;102595.22;;;15.69;68.90
19208;BME280;9737;59.466;18.036;2023-04-26T13:10:19;102852.75;;;16.31;69.07
19208;BME280;9737;59.466;18.036;2023-04-26T13:12:47;102448.91;;;15.35;68.96
19208;BME280;9737;59.466;18.036;2023-04-26T13:15:15;101918.38;;;14.12;68.49
19208;BME280;9737;59.466;18.036;2023-04-26T13:17:43;102341.94;;;15.16;68.22
19208;BME280;9737;59.466;18.036;2023-04-26T13:20:12;102482.81;;;15.50;68.48
19208;BME280;9737;59.466;18.036;2023-04-26T13:22:41;102604.81;;;15.73;68.22
19208;BME280;9737;59.466;18.036;2023-04-26T13:25:09;102563.22;;;15.66;68.17